sensor_id;sensor_type;location;lat;lon;timestamp;pressure;altitude;pressure_sealevel;temperature;humidity
20160;BME280;50187;50.492;12.134;2023-08-06T00:00:30;96776.03;;;21.64;49.35
20160;BME280;50187;50.492;12.134;2023-08-06T00:02:57;96771.66;;;21.63;49.33
20160;BME280;50187;50.492;12.134;2023-08-06T00:05:24;96773.97;;;21.66;49.48
20160;BME280;50187;50.492;12.134;2023-08-06T00:07:50;96769.59;;;21.65;49.40
20160;BME280;50187;50.492;12.134;2023-08-06T00:10:17;96763.34;;;21.64;49.54
20160;BME280;50187;50.492;12.134;2023-08-06T00:12:44;96762.50;;;21.64;49.46
20160;BME280;50187;50.492;12.134;2023-08-06T00:15:11;96778.75;;;21.64;49.37
20160;BME280;50187;50.492;12.134;2023-08-06T00:17:38;96774.34;;;21.63;49.42
20160;BME280;50187;50.492;12.134;2023-08-06T00:20:05;96775.19;;;21.63;49.25
20160;BME280;50187;50.492;12.134;2023-08-06T00:22:33;96776.03;;;21.64;49.32
20160;BME280;50187;50.492;12.134;2023-08-06T00:25:00;96774.34;;;21.63;49.41
20160;BME280;50187;50.492;12.134;2023-08-06T00:27:27;96778.94;;;21.62;49.48
20160;BME280;50187;50.492;12.134;2023-08-06T00:29:54;96782.84;;;21.59;49.30
20160;BME280;50187;50.492;12.134;2023-08-06T00:32:21;96780.59;;;21.63;49.61
20160;BME280;50187;50.492;12.134;2023-08-06T00:34:48;96786.19;;;21.61;49.45
20160;BME280;50187;50.492;12.134;2023-08-06T00:37:18;96794.13;;;21.63;49.48
20160;BME280;50187;50.492;12.134;2023-08-06T00:39:45;96787.69;;;21.64;49.31
20160;BME280;50187;50.492;12.134;2023-08-06T00:42:12;96786.88;;;21.64;49.27
20160;BME280;50187;50.492;12.134;2023-08-06T00:44:38;96760.81;;;21.63;49.58
20160;BME280;50187;50.492;12.134;2023-08-06T00:47:07;96766.03;;;21.64;49.39
20160;BME280;50187;50.492;12.134;2023-08-06T00:49:36;96760.81;;;21.63;49.25
20160;BME280;50187;50.492;12.134;2023-08-06T00:52:06;96768.13;;;21.62;49.44
20160;BME280;50187;50.492;12.134;2023-08-06T00:54:36;96757.47;;;21.60;49.53
20160;BME280;50187;50.492;12.134;2023-08-06T00:57:04;96755.41;;;21.63;49.49
20160;BME280;50187;50.492;12.134;2023-08-06T00:59:33;96766.22;;;21.63;49.37
20160;BME280;50187;50.492;12.134;2023-08-06T01:02:01;96760.00;;;21.62;49.47
20160;BME280;50187;50.492;12.134;2023-08-06T01:04:28;96754.38;;;21.64;49.58
20160;BME280;50187;50.492;12.134;2023-08-06T01:07:06;96752.69;;;21.63;49.36
20160;BME280;50187;50.492;12.134;2023-08-06T01:17:33;96742.06;;;21.61;49.32
20160;BME280;50187;50.492;12.134;2023-08-06T01:20:01;96737.47;;;21.61;49.55
20160;BME280;50187;50.492;12.134;2023-08-06T01:22:28;96743.75;;;21.62;49.42
20160;BME280;50187;50.492;12.134;2023-08-06T01:24:55;96744.97;;;21.59;49.47
20160;BME280;50187;50.492;12.134;2023-08-06T01:27:38;96745.59;;;21.61;49.49
20160;BME280;50187;50.492;12.134;2023-08-06T01:30:17;96739.38;;;21.61;49.57
20160;BME280;50187;50.492;12.134;2023-08-06T01:32:49;96742.91;;;21.61;49.50
20160;BME280;50187;50.492;12.134;2023-08-06T01:35:18;96740.19;;;21.61;49.55
20160;BME280;50187;50.492;12.134;2023-08-06T01:37:46;96730.41;;;21.60;49.34
20160;BME280;50187;50.492;12.134;2023-08-06T01:40:14;96723.13;;;21.61;49.45
20160;BME280;50187;50.492;12.134;2023-08-06T01:42:40;96725.84;;;21.61;49.22
20160;BME280;50187;50.492;12.134;2023-08-06T01:45:08;96709.31;;;21.56;49.37
20160;BME280;50187;50.492;12.134;2023-08-06T01:47:35;96708.78;;;21.60;49.30
20160;BME280;50187;50.492;12.134;2023-08-06T01:50:02;96705.00;;;21.61;49.56
20160;BME280;50187;50.492;12.134;2023-08-06T01:52:29;96699.59;;;21.61;49.42
20160;BME280;50187;50.492;12.134;2023-08-06T01:54:56;96696.06;;;21.61;49.29
20160;BME280;50187;50.492;12.134;2023-08-06T01:57:22;96708.78;;;21.60;49.54
20160;BME280;50187;50.492;12.134;2023-08-06T01:59:49;96716.88;;;21.60;49.34
20160;BME280;50187;50.492;12.134;2023-08-06T02:02:16;96714.19;;;21.60;49.28
20160;BME280;50187;50.492;12.134;2023-08-06T02:04:43;96720.63;;;21.59;49.30
20160;BME280;50187;50.492;12.134;2023-08-06T02:07:11;96708.78;;;21.60;49.31
20160;BME280;50187;50.492;12.134;2023-08-06T02:09:38;96705.88;;;21.62;49.37
20160;BME280;50187;50.492;12.134;2023-08-06T02:12:05;96710.00;;;21.58;49.46
20160;BME280;50187;50.492;12.134;2023-08-06T02:14:32;96702.31;;;21.61;49.57
20160;BME280;50187;50.492;12.134;2023-08-06T02:16:58;96689.38;;;21.57;49.48
20160;BME280;50187;50.492;12.134;2023-08-06T02:19:25;96685.44;;;21.59;49.44
20160;BME280;50187;50.492;12.134;2023-08-06T02:21:52;96687.94;;;21.61;49.48
20160;BME280;50187;50.492;12.134;2023-08-06T02:24:18;96679.81;;;21.61;49.29
20160;BME280;50187;50.492;12.134;2023-08-06T02:26:45;96672.94;;;21.58;49.38
20160;BME280;50187;50.492;12.134;2023-08-06T02:29:13;96683.56;;;21.60;49.42
20160;BME280;50187;50.492;12.134;2023-08-06T02:31:42;96676.28;;;21.60;49.38
20160;BME280;50187;50.492;12.134;2023-08-06T02:34:09;96665.84;;;21.57;49.54
20160;BME280;50187;50.492;12.134;2023-08-06T02:36:35;96670.88;;;21.60;49.39
20160;BME280;50187;50.492;12.134;2023-08-06T02:39:02;96666.22;;;21.54;49.51
20160;BME280;50187;50.492;12.134;2023-08-06T02:41:29;96682.72;;;21.59;49.29
20160;BME280;50187;50.492;12.134;2023-08-06T02:43:56;96664.38;;;21.55;49.25
20160;BME280;50187;50.492;12.134;2023-08-06T02:46:23;96677.31;;;21.59;49.44
20160;BME280;50187;50.492;12.134;2023-08-06T02:48:50;96670.03;;;21.60;49.42
20160;BME280;50187;50.492;12.134;2023-08-06T02:51:16;96663.78;;;21.59;49.29
20160;BME280;50187;50.492;12.134;2023-08-06T02:53:43;96661.91;;;21.60;49.27
20160;BME280;50187;50.492;12.134;2023-08-06T02:56:12;96668.19;;;21.60;49.27
20160;BME280;50187;50.492;12.134;2023-08-06T02:58:59;96663.78;;;21.59;49.37
20160;BME280;50187;50.492;12.134;2023-08-06T03:01:39;96656.69;;;21.58;49.33
20160;BME280;50187;50.492;12.134;2023-08-06T03:04:14;96659.19;;;21.60;49.44
20160;BME280;50187;50.492;12.134;2023-08-06T03:06:45;96664.63;;;21.60;49.39
20160;BME280;50187;50.492;12.134;2023-08-06T03:09:13;96658.38;;;21.59;49.55
20160;BME280;50187;50.492;12.134;2023-08-06T03:11:39;96658.38;;;21.59;49.32
20160;BME280;50187;50.492;12.134;2023-08-06T03:14:10;96652.97;;;21.59;49.23
20160;BME280;50187;50.492;12.134;2023-08-06T03:16:38;96651.69;;;21.55;49.43
20160;BME280;50187;50.492;12.134;2023-08-06T03:19:04;96657.91;;;21.56;49.39
20160;BME280;50187;50.492;12.134;2023-08-06T03:21:31;96657.56;;;21.59;49.25
20160;BME280;50187;50.492;12.134;2023-08-06T03:23:58;96650.84;;;21.55;49.49
20160;BME280;50187;50.492;12.134;2023-08-06T03:26:29;96661.09;;;21.59;49.55
20160;BME280;50187;50.492;12.134;2023-08-06T03:28:55;96660.25;;;21.59;49.63
20160;BME280;50187;50.492;12.134;2023-08-06T03:31:22;96656.69;;;21.58;49.39
20160;BME280;50187;50.492;12.134;2023-08-06T03:33:49;96660.41;;;21.57;49.52
20160;BME280;50187;50.492;12.134;2023-08-06T03:36:21;96650.25;;;21.59;49.51
20160;BME280;50187;50.492;12.134;2023-08-06T03:38:50;96640.47;;;21.58;49.57
20160;BME280;50187;50.492;12.134;2023-08-06T03:41:17;96644.84;;;21.59;49.37
20160;BME280;50187;50.492;12.134;2023-08-06T03:43:44;96642.13;;;21.59;49.40
20160;BME280;50187;50.492;12.134;2023-08-06T03:46:17;96633.75;;;21.54;49.48
20160;BME280;50187;50.492;12.134;2023-08-06T03:48:44;96638.78;;;21.57;49.54
20160;BME280;50187;50.492;12.134;2023-08-06T03:51:11;96637.75;;;21.58;49.55
20160;BME280;50187;50.492;12.134;2023-08-06T03:53:39;96635.91;;;21.59;49.58
20160;BME280;50187;50.492;12.134;2023-08-06T03:56:06;96634.63;;;21.55;49.37
20160;BME280;50187;50.492;12.134;2023-08-06T03:58:33;96635.03;;;21.58;49.36
20160;BME280;50187;50.492;12.134;2023-08-06T04:01:01;96634.22;;;21.58;49.58
20160;BME280;50187;50.492;12.134;2023-08-06T04:03:48;96626.94;;;21.58;49.23
20160;BME280;50187;50.492;12.134;2023-08-06T04:06:15;96626.31;;;21.56;49.40
20160;BME280;50187;50.492;12.134;2023-08-06T04:08:42;96631.72;;;21.56;49.53
20160;BME280;50187;50.492;12.134;2023-08-06T04:11:08;96619.00;;;21.57;49.45
20160;BME280;50187;50.492;12.134;2023-08-06T04:13:35;96620.22;;;21.54;49.20
20160;BME280;50187;50.492;12.134;2023-08-06T04:16:02;96621.72;;;21.57;49.57
20160;BME280;50187;50.492;12.134;2023-08-06T04:18:30;96627.94;;;21.57;49.38
20160;BME280;50187;50.492;12.134;2023-08-06T04:20:57;96628.81;;;21.58;49.39
20160;BME280;50187;50.492;12.134;2023-08-06T04:23:24;96624.00;;;21.53;49.49
20160;BME280;50187;50.492;12.134;2023-08-06T04:25:58;96630.03;;;21.55;49.33
20160;BME280;50187;50.492;12.134;2023-08-06T04:28:28;96619.59;;;21.52;49.16
20160;BME280;50187;50.492;12.134;2023-08-06T04:30:55;96624.63;;;21.55;49.50
20160;BME280;50187;50.492;12.134;2023-08-06T04:33:21;96621.91;;;21.55;49.38
20160;BME280;50187;50.492;12.134;2023-08-06T04:35:54;96624.63;;;21.55;49.47
20160;BME280;50187;50.492;12.134;2023-08-06T04:38:23;96621.72;;;21.57;49.29
20160;BME280;50187;50.492;12.134;2023-08-06T04:40:52;96612.97;;;21.55;49.33
20160;BME280;50187;50.492;12.134;2023-08-06T04:43:20;96610.06;;;21.56;49.59
20160;BME280;50187;50.492;12.134;2023-08-06T04:45:51;96609.22;;;21.56;49.27
20160;BME280;50187;50.492;12.134;2023-08-06T04:48:19;96628.16;;;21.56;49.40
20160;BME280;50187;50.492;12.134;2023-08-06T04:50:47;96609.59;;;21.53;49.36
20160;BME280;50187;50.492;12.134;2023-08-06T04:53:14;96610.06;;;21.56;49.49
20160;BME280;50187;50.492;12.134;2023-08-06T04:55:41;96611.09;;;21.55;49.26
20160;BME280;50187;50.492;12.134;2023-08-06T04:58:09;96610.06;;;21.56;49.53
20160;BME280;50187;50.492;12.134;2023-08-06T05:00:36;96610.06;;;21.56;49.63
20160;BME280;50187;50.492;12.134;2023-08-06T05:03:03;96610.25;;;21.55;49.38
20160;BME280;50187;50.492;12.134;2023-08-06T05:05:30;96615.47;;;21.56;49.45
20160;BME280;50187;50.492;12.134;2023-08-06T05:07:57;96623.78;;;21.55;49.34
20160;BME280;50187;50.492;12.134;2023-08-06T05:10:27;96612.78;;;21.56;49.54
20160;BME280;50187;50.492;12.134;2023-08-06T05:12:53;96614.63;;;21.56;49.47
20160;BME280;50187;50.492;12.134;2023-08-06T05:15:20;96612.97;;;21.55;49.39
20160;BME280;50187;50.492;12.134;2023-08-06T05:17:47;96597.47;;;21.49;49.27
20160;BME280;50187;50.492;12.134;2023-08-06T05:20:14;96605.69;;;21.55;49.55
20160;BME280;50187;50.492;12.134;2023-08-06T05:22:41;96608.19;;;21.57;49.59
20160;BME280;50187;50.492;12.134;2023-08-06T05:25:07;96608.38;;;21.55;49.56
20160;BME280;50187;50.492;12.134;2023-08-06T05:27:34;96602.97;;;21.55;49.20
20160;BME280;50187;50.492;12.134;2023-08-06T05:30:01;96609.22;;;21.56;49.27
20160;BME280;50187;50.492;12.134;2023-08-06T05:32:27;96600.66;;;21.52;49.61
20160;BME280;50187;50.492;12.134;2023-08-06T05:34:54;96592.16;;;21.55;49.19
20160;BME280;50187;50.492;12.134;2023-08-06T05:37:21;96592.16;;;21.55;49.38
20160;BME280;50187;50.492;12.134;2023-08-06T05:39:47;96600.25;;;21.55;49.32
20160;BME280;50187;50.492;12.134;2023-08-06T05:42:14;96595.06;;;21.54;49.17
20160;BME280;50187;50.492;12.134;2023-08-06T05:44:40;96595.06;;;21.54;49.36
20160;BME280;50187;50.492;12.134;2023-08-06T05:47:07;96594.22;;;21.53;49.34
20160;BME280;50187;50.492;12.134;2023-08-06T05:49:34;96591.84;;;21.50;49.30
20160;BME280;50187;50.492;12.134;2023-08-06T05:52:00;96598.38;;;21.56;49.33
20160;BME280;50187;50.492;12.134;2023-08-06T05:54:27;96604.00;;;21.54;49.25
20160;BME280;50187;50.492;12.134;2023-08-06T05:56:53;96593.81;;;21.56;49.35
20160;BME280;50187;50.492;12.134;2023-08-06T05:59:20;96597.56;;;21.55;49.31
20160;BME280;50187;50.492;12.134;2023-08-06T06:01:47;96598.38;;;21.56;49.40
20160;BME280;50187;50.492;12.134;2023-08-06T06:04:13;96586.72;;;21.55;49.49
20160;BME280;50187;50.492;12.134;2023-08-06T06:06:40;96584.03;;;21.55;49.51
20160;BME280;50187;50.492;12.134;2023-08-06T06:09:08;96586.72;;;21.55;49.55
20160;BME280;50187;50.492;12.134;2023-08-06T06:11:34;96591.13;;;21.56;49.38
20160;BME280;50187;50.492;12.134;2023-08-06T06:14:01;96586.72;;;21.55;49.58
20160;BME280;50187;50.492;12.134;2023-08-06T06:16:28;96598.56;;;21.54;49.47
20160;BME280;50187;50.492;12.134;2023-08-06T06:18:54;96588.63;;;21.55;49.34
20160;BME280;50187;50.492;12.134;2023-08-06T06:21:21;96587.56;;;21.56;49.27
20160;BME280;50187;50.492;12.134;2023-08-06T06:23:47;96593.38;;;21.53;49.28
20160;BME280;50187;50.492;12.134;2023-08-06T06:26:14;96586.72;;;21.55;49.57
20160;BME280;50187;50.492;12.134;2023-08-06T06:28:41;96592.97;;;21.56;49.48
20160;BME280;50187;50.492;12.134;2023-08-06T06:31:07;96590.25;;;21.56;49.42
20160;BME280;50187;50.492;12.134;2023-08-06T06:33:34;96585.06;;;21.54;49.33
20160;BME280;50187;50.492;12.134;2023-08-06T06:36:01;96589.25;;;21.57;49.45
20160;BME280;50187;50.492;12.134;2023-08-06T06:38:29;96577.59;;;21.56;49.48
20160;BME280;50187;50.492;12.134;2023-08-06T06:40:56;96577.59;;;21.56;49.44
20160;BME280;50187;50.492;12.134;2023-08-06T06:43:23;96575.81;;;21.49;49.27
20160;BME280;50187;50.492;12.134;2023-08-06T06:45:56;96575.91;;;21.55;49.19
20160;BME280;50187;50.492;12.134;2023-08-06T06:48:23;96580.31;;;21.56;49.27
20160;BME280;50187;50.492;12.134;2023-08-06T06:50:49;96575.91;;;21.55;49.31
20160;BME280;50187;50.492;12.134;2023-08-06T06:53:16;96569.47;;;21.56;49.42
20160;BME280;50187;50.492;12.134;2023-08-06T06:55:43;96560.50;;;21.56;49.22
20160;BME280;50187;50.492;12.134;2023-08-06T06:58:09;96570.31;;;21.57;49.32
20160;BME280;50187;50.492;12.134;2023-08-06T07:00:36;96566.78;;;21.56;49.26
20160;BME280;50187;50.492;12.134;2023-08-06T07:03:03;96556.78;;;21.57;49.27
20160;BME280;50187;50.492;12.134;2023-08-06T07:05:30;96559.47;;;21.57;49.42
20160;BME280;50187;50.492;12.134;2023-08-06T07:07:57;96552.19;;;21.57;49.49
20160;BME280;50187;50.492;12.134;2023-08-06T07:10:23;96564.06;;;21.56;49.53
20160;BME280;50187;50.492;12.134;2023-08-06T07:12:50;96558.66;;;21.56;49.36
20160;BME280;50187;50.492;12.134;2023-08-06T07:15:16;96568.41;;;21.57;49.51
20160;BME280;50187;50.492;12.134;2023-08-06T07:17:44;96567.59;;;21.57;49.20
20160;BME280;50187;50.492;12.134;2023-08-06T07:20:10;96560.50;;;21.56;49.32
20160;BME280;50187;50.492;12.134;2023-08-06T07:22:37;96565.09;;;21.55;49.23
20160;BME280;50187;50.492;12.134;2023-08-06T07:25:04;96563.00;;;21.57;49.27
20160;BME280;50187;50.492;12.134;2023-08-06T07:27:32;96551.34;;;21.57;49.49
20160;BME280;50187;50.492;12.134;2023-08-06T07:29:58;96565.09;;;21.55;49.51
20160;BME280;50187;50.492;12.134;2023-08-06T07:32:26;96550.53;;;21.56;49.58
20160;BME280;50187;50.492;12.134;2023-08-06T07:34:52;96548.03;;;21.55;49.43
20160;BME280;50187;50.492;12.134;2023-08-06T07:37:23;96541.34;;;21.57;49.27
20160;BME280;50187;50.492;12.134;2023-08-06T07:39:49;96551.34;;;21.57;49.29
20160;BME280;50187;50.492;12.134;2023-08-06T07:42:16;96554.25;;;21.55;49.53
20160;BME280;50187;50.492;12.134;2023-08-06T07:45:05;96548.84;;;21.55;49.70
20160;BME280;50187;50.492;12.134;2023-08-06T07:47:32;96557.16;;;21.54;49.30
20160;BME280;50187;50.492;12.134;2023-08-06T07:49:58;96550.53;;;21.56;49.36
20160;BME280;50187;50.492;12.134;2023-08-06T07:52:26;96547.84;;;21.56;49.31
20160;BME280;50187;50.492;12.134;2023-08-06T07:54:52;96547.84;;;21.56;49.48
20160;BME280;50187;50.492;12.134;2023-08-06T07:57:19;96545.94;;;21.57;49.28
20160;BME280;50187;50.492;12.134;2023-08-06T07:59:45;96556.78;;;21.57;49.41
20160;BME280;50187;50.492;12.134;2023-08-06T08:02:12;96547.84;;;21.56;49.58
20160;BME280;50187;50.492;12.134;2023-08-06T08:04:39;96546.16;;;21.55;49.37
20160;BME280;50187;50.492;12.134;2023-08-06T08:07:05;96551.56;;;21.55;49.54
20160;BME280;50187;50.492;12.134;2023-08-06T08:09:32;96549.47;;;21.57;49.27
20160;BME280;50187;50.492;12.134;2023-08-06T08:11:58;96546.78;;;21.57;49.32
20160;BME280;50187;50.492;12.134;2023-08-06T08:14:27;96543.03;;;21.58;49.54
20160;BME280;50187;50.492;12.134;2023-08-06T08:16:55;96537.22;;;21.55;49.31
20160;BME280;50187;50.492;12.134;2023-08-06T08:19:22;96539.50;;;21.58;49.25
20160;BME280;50187;50.492;12.134;2023-08-06T08:21:49;96530.38;;;21.59;49.54
20160;BME280;50187;50.492;12.134;2023-08-06T08:24:15;96530.38;;;21.59;49.26
20160;BME280;50187;50.492;12.134;2023-08-06T08:26:42;96530.53;;;21.57;49.43
20160;BME280;50187;50.492;12.134;2023-08-06T08:29:08;96527.00;;;21.57;49.43
20160;BME280;50187;50.492;12.134;2023-08-06T08:31:35;96524.09;;;21.58;49.50
20160;BME280;50187;50.492;12.134;2023-08-06T08:34:05;96522.41;;;21.57;49.57
20160;BME280;50187;50.492;12.134;2023-08-06T08:36:32;96524.09;;;21.58;49.54
20160;BME280;50187;50.492;12.134;2023-08-06T08:38:59;96517.88;;;21.58;49.36
20160;BME280;50187;50.492;12.134;2023-08-06T08:41:28;96521.41;;;21.58;49.28
20160;BME280;50187;50.492;12.134;2023-08-06T08:43:58;96518.69;;;21.58;49.18
20160;BME280;50187;50.492;12.134;2023-08-06T08:46:27;96517.66;;;21.59;49.39
20160;BME280;50187;50.492;12.134;2023-08-06T08:49:00;96514.97;;;21.59;49.54
20160;BME280;50187;50.492;12.134;2023-08-06T08:51:27;96507.66;;;21.60;49.58
20160;BME280;50187;50.492;12.134;2023-08-06T08:53:55;96515.78;;;21.60;49.37
20160;BME280;50187;50.492;12.134;2023-08-06T08:56:25;96511.22;;;21.60;49.50
20160;BME280;50187;50.492;12.134;2023-08-06T08:58:51;96498.53;;;21.61;49.55
20160;BME280;50187;50.492;12.134;2023-08-06T09:01:21;96507.47;;;21.61;49.31
20160;BME280;50187;50.492;12.134;2023-08-06T09:03:48;96507.25;;;21.63;49.60
20160;BME280;50187;50.492;12.134;2023-08-06T09:06:17;96503.53;;;21.64;49.36
20160;BME280;50187;50.492;12.134;2023-08-06T09:08:56;96512.50;;;21.65;49.57
20160;BME280;50187;50.492;12.134;2023-08-06T09:11:26;96518.75;;;21.65;49.63
20160;BME280;50187;50.492;12.134;2023-08-06T09:13:53;96521.66;;;21.64;49.54
20160;BME280;50187;50.492;12.134;2023-08-06T09:16:20;96501.69;;;21.65;49.61
20160;BME280;50187;50.492;12.134;2023-08-06T09:18:47;96500.81;;;21.64;49.35
20160;BME280;50187;50.492;12.134;2023-08-06T09:21:14;96502.31;;;21.67;49.45
20160;BME280;50187;50.492;12.134;2023-08-06T09:23:44;96486.88;;;21.67;49.58
20160;BME280;50187;50.492;12.134;2023-08-06T09:26:13;96503.97;;;21.68;49.53
20160;BME280;50187;50.492;12.134;2023-08-06T09:28:42;96483.56;;;21.65;49.37
20160;BME280;50187;50.492;12.134;2023-08-06T09:31:10;96482.34;;;21.68;49.32
20160;BME280;50187;50.492;12.134;2023-08-06T09:33:37;96491.06;;;21.70;49.37
20160;BME280;50187;50.492;12.134;2023-08-06T09:36:10;96489.44;;;21.69;49.53
20160;BME280;50187;50.492;12.134;2023-08-06T09:38:38;96485.66;;;21.70;49.38
20160;BME280;50187;50.492;12.134;2023-08-06T09:41:08;96475.03;;;21.68;49.28
20160;BME280;50187;50.492;12.134;2023-08-06T09:43:42;96478.00;;;21.73;49.34
20160;BME280;50187;50.492;12.134;2023-08-06T09:46:13;96477.13;;;21.73;49.49
20160;BME280;50187;50.492;12.134;2023-08-06T09:48:40;96484.22;;;21.74;49.28
20160;BME280;50187;50.492;12.134;2023-08-06T09:51:08;96464.47;;;21.73;49.47
20160;BME280;50187;50.492;12.134;2023-08-06T09:53:37;96459.66;;;21.75;49.20
20160;BME280;50187;50.492;12.134;2023-08-06T09:56:04;96465.09;;;21.75;49.43
20160;BME280;50187;50.492;12.134;2023-08-06T09:58:32;96461.16;;;21.78;49.35
20160;BME280;50187;50.492;12.134;2023-08-06T10:01:00;96453.03;;;21.78;49.14
20160;BME280;50187;50.492;12.134;2023-08-06T10:03:27;96443.69;;;21.81;49.17
20160;BME280;50187;50.492;12.134;2023-08-06T10:05:55;96438.66;;;21.77;49.29
20160;BME280;50187;50.492;12.134;2023-08-06T10:08:23;96439.75;;;21.83;49.13
20160;BME280;50187;50.492;12.134;2023-08-06T10:10:49;96435.81;;;21.86;49.29
20160;BME280;50187;50.492;12.134;2023-08-06T10:13:21;96430.59;;;21.91;49.32
20160;BME280;50187;50.492;12.134;2023-08-06T10:15:49;96424.16;;;21.92;49.18
20160;BME280;50187;50.492;12.134;2023-08-06T10:18:17;96424.97;;;21.92;49.12
20160;BME280;50187;50.492;12.134;2023-08-06T10:20:48;96427.09;;;21.97;49.13
20160;BME280;50187;50.492;12.134;2023-08-06T10:23:14;96423.13;;;22.00;48.97
20160;BME280;50187;50.492;12.134;2023-08-06T10:25:42;96422.94;;;22.01;48.76
20160;BME280;50187;50.492;12.134;2023-08-06T10:28:10;96407.31;;;22.03;48.77
20160;BME280;50187;50.492;12.134;2023-08-06T10:30:44;96408.75;;;21.99;48.90
20160;BME280;50187;50.492;12.134;2023-08-06T10:33:11;96403.16;;;22.01;48.89
20160;BME280;50187;50.492;12.134;2023-08-06T10:35:42;96397.13;;;21.99;48.59
20160;BME280;50187;50.492;12.134;2023-08-06T10:38:25;96392.72;;;21.98;48.75
20160;BME280;50187;50.492;12.134;2023-08-06T10:43:31;96389.38;;;21.95;49.01
20160;BME280;50187;50.492;12.134;2023-08-06T10:45:59;96383.34;;;21.93;49.09
20160;BME280;50187;50.492;12.134;2023-08-06T10:48:36;96380.63;;;21.93;48.81
20160;BME280;50187;50.492;12.134;2023-08-06T10:51:07;96383.75;;;21.90;48.91
20160;BME280;50187;50.492;12.134;2023-08-06T10:53:34;96381.88;;;21.91;49.17
20160;BME280;50187;50.492;12.134;2023-08-06T10:56:02;96369.19;;;21.91;48.94
20160;BME280;50187;50.492;12.134;2023-08-06T10:58:32;96362.13;;;21.97;48.92
20160;BME280;50187;50.492;12.134;2023-08-06T11:01:00;96358.34;;;21.98;49.13
20160;BME280;50187;50.492;12.134;2023-08-06T11:03:27;96353.78;;;21.99;49.02
20160;BME280;50187;50.492;12.134;2023-08-06T11:05:54;96357.13;;;22.01;48.99
20160;BME280;50187;50.492;12.134;2023-08-06T11:08:29;96357.56;;;22.04;49.02
20160;BME280;50187;50.492;12.134;2023-08-06T11:11:07;96351.72;;;22.07;49.09
20160;BME280;50187;50.492;12.134;2023-08-06T11:13:34;96353.00;;;22.11;48.85
20160;BME280;50187;50.492;12.134;2023-08-06T11:16:01;96349.03;;;22.14;48.89
20160;BME280;50187;50.492;12.134;2023-08-06T11:18:28;96332.59;;;22.16;48.55
20160;BME280;50187;50.492;12.134;2023-08-06T11:20:54;96331.94;;;22.20;48.73
20160;BME280;50187;50.492;12.134;2023-08-06T11:23:21;96332.16;;;22.19;48.40
20160;BME280;50187;50.492;12.134;2023-08-06T11:25:48;96328.41;;;22.20;48.42
20160;BME280;50187;50.492;12.134;2023-08-06T11:28:14;96330.28;;;22.19;48.56
20160;BME280;50187;50.492;12.134;2023-08-06T11:30:41;96325.50;;;22.21;48.33
20160;BME280;50187;50.492;12.134;2023-08-06T11:33:07;96318.41;;;22.20;48.65
20160;BME280;50187;50.492;12.134;2023-08-06T11:35:37;96316.13;;;22.17;48.65
20160;BME280;50187;50.492;12.134;2023-08-06T11:38:04;96327.16;;;22.22;48.60
20160;BME280;50187;50.492;12.134;2023-08-06T11:40:32;96321.34;;;22.25;48.54
20160;BME280;50187;50.492;12.134;2023-08-06T11:42:58;96321.97;;;22.27;48.21
20160;BME280;50187;50.492;12.134;2023-08-06T11:45:25;96317.16;;;22.23;48.42
20160;BME280;50187;50.492;12.134;2023-08-06T11:47:52;96320.72;;;22.30;48.44
20160;BME280;50187;50.492;12.134;2023-08-06T11:50:25;96332.38;;;22.30;48.15
20160;BME280;50187;50.492;12.134;2023-08-06T11:52:54;96324.25;;;22.30;48.32
20160;BME280;50187;50.492;12.134;2023-08-06T11:55:23;96333.22;;;22.24;48.46
20160;BME280;50187;50.492;12.134;2023-08-06T11:57:51;96328.22;;;22.28;48.39
20160;BME280;50187;50.492;12.134;2023-08-06T12:00:17;96326.53;;;22.20;48.20
20160;BME280;50187;50.492;12.134;2023-08-06T12:02:46;96325.09;;;22.24;48.21
20160;BME280;50187;50.492;12.134;2023-08-06T12:05:15;96325.91;;;22.25;48.29
20160;BME280;50187;50.492;12.134;2023-08-06T12:07:48;96328.00;;;22.23;48.49
20160;BME280;50187;50.492;12.134;2023-08-06T12:10:16;96318.00;;;22.23;48.29
20160;BME280;50187;50.492;12.134;2023-08-06T12:12:42;96309.03;;;22.23;48.42
20160;BME280;50187;50.492;12.134;2023-08-06T12:15:10;96303.41;;;22.24;48.63
20160;BME280;50187;50.492;12.134;2023-08-06T12:17:37;96303.00;;;22.27;48.46
20160;BME280;50187;50.492;12.134;2023-08-06T12:20:05;96301.97;;;22.28;48.50
20160;BME280;50187;50.492;12.134;2023-08-06T12:22:33;96302.59;;;22.24;48.31
20160;BME280;50187;50.492;12.134;2023-08-06T12:25:12;96293.63;;;22.30;48.36
20160;BME280;50187;50.492;12.134;2023-08-06T12:27:41;96295.31;;;22.31;48.45
20160;BME280;50187;50.492;12.134;2023-08-06T12:30:09;96294.25;;;22.32;48.46
20160;BME280;50187;50.492;12.134;2023-08-06T12:32:37;96295.94;;;22.33;48.17
20160;BME280;50187;50.492;12.134;2023-08-06T12:35:04;96295.31;;;22.31;48.14
20160;BME280;50187;50.492;12.134;2023-08-06T12:37:34;96303.03;;;22.34;48.32
20160;BME280;50187;50.492;12.134;2023-08-06T12:40:00;96295.09;;;22.33;48.19
20160;BME280;50187;50.492;12.134;2023-08-06T12:42:47;96302.22;;;22.34;48.29
20160;BME280;50187;50.492;12.134;2023-08-06T12:45:15;96295.09;;;22.33;48.34
20160;BME280;50187;50.492;12.134;2023-08-06T12:47:42;96301.38;;;22.33;48.34
20160;BME280;50187;50.492;12.134;2023-08-06T12:50:09;96296.81;;;22.34;48.25
20160;BME280;50187;50.492;12.134;2023-08-06T12:52:35;96305.94;;;22.33;48.36
20160;BME280;50187;50.492;12.134;2023-08-06T12:55:02;96300.72;;;22.31;48.33
20160;BME280;50187;50.492;12.134;2023-08-06T12:57:29;96295.31;;;22.31;48.12
20160;BME280;50187;50.492;12.134;2023-08-06T13:00:16;96304.25;;;22.32;48.16
20160;BME280;50187;50.492;12.134;2023-08-06T13:02:43;96297.16;;;22.30;48.38
20160;BME280;50187;50.492;12.134;2023-08-06T13:05:09;96306.34;;;22.29;48.17